Time;durP1;ratioP1;P1;durP2;ratioP2;P2;SDS_P1;SDS_P2;PMS_P1;PMS_P2;Temp;Humidity;BMP_temperature;BMP_pressure;BME280_temperature;BME280_humidity;BME280_pressure;Samples;Min_cycle;Max_cycle;Signal;HPM_P1;HPM_P2
2021/09/12 00:01:05;;;;;;;9.82;7.65;;;15.90;99.90;;;;;;5033586;28;20049;-87
2021/09/12 00:03:33;;;;;;;11.40;7.53;;;15.80;99.90;;;;;;5015869;28;20073;-87
2021/09/12 00:06:00;;;;;;;8.13;7.43;;;15.70;99.90;;;;;;5032721;28;20563;-87
2021/09/12 00:08:28;;;;;;;7.78;7.07;;;15.80;99.90;;;;;;5015259;28;20065;-87
2021/09/12 00:10:55;;;;;;;8.65;7.80;;;15.70;99.90;;;;;;5032935;28;20072;-87
2021/09/12 00:13:21;;;;;;;9.15;7.38;;;15.70;99.90;;;;;;5032960;28;20056;-87
2021/09/12 00:15:49;;;;;;;8.27;7.47;;;15.70;99.90;;;;;;5016143;28;20045;-87
2021/09/12 00:18:17;;;;;;;8.02;7.32;;;15.80;99.90;;;;;;5019473;28;20049;-87
2021/09/12 00:20:43;;;;;;;9.10;7.50;;;15.90;99.90;;;;;;5019679;28;20515;-86
2021/09/12 00:23:10;;;;;;;9.10;7.97;;;15.90;99.90;;;;;;5037141;28;20049;-87
2021/09/12 00:25:38;;;;;;;7.57;6.88;;;15.90;99.90;;;;;;5037595;28;20673;-87
2021/09/12 00:28:04;;;;;;;7.38;6.75;;;15.90;99.90;;;;;;5037003;28;20050;-87
2021/09/12 00:30:31;;;;;;;7.43;6.78;;;15.90;99.90;;;;;;5036561;28;20045;-87
2021/09/12 00:32:58;;;;;;;7.88;6.88;;;16.00;99.90;;;;;;5019206;28;20060;-87
2021/09/12 00:35:25;;;;;;;8.00;6.15;;;16.00;99.90;;;;;;5019418;28;20524;-86
2021/09/12 00:37:53;;;;;;;7.50;6.70;;;15.90;99.90;;;;;;5023151;28;20053;-87
2021/09/12 00:40:22;;;;;;;10.38;7.38;;;16.00;99.90;;;;;;5037945;28;20231;-87
2021/09/12 00:42:49;;;;;;;6.95;6.35;;;16.00;99.90;;;;;;5023822;28;20053;-86
2021/09/12 00:45:18;;;;;;;7.40;6.70;;;16.00;99.90;;;;;;5019152;28;20088;-86
2021/09/12 00:47:46;;;;;;;11.32;6.80;;;16.00;99.90;;;;;;5019093;28;20099;-86
2021/09/12 00:50:15;;;;;;;8.20;7.00;;;16.10;99.90;;;;;;5019097;28;20080;-87
2021/09/12 00:52:45;;;;;;;9.55;7.10;;;16.10;99.90;;;;;;5036585;28;20058;-87
2021/09/12 00:55:14;;;;;;;12.52;7.07;;;15.90;99.90;;;;;;5019413;28;20065;-87
2021/09/12 00:57:43;;;;;;;8.27;7.50;;;15.90;99.90;;;;;;5019256;28;20060;-87
2021/09/12 01:00:12;;;;;;;8.02;7.03;;;15.80;99.90;;;;;;5036175;28;20095;-87
2021/09/12 01:02:38;;;;;;;7.85;7.15;;;15.90;99.90;;;;;;5018959;28;20045;-87
2021/09/12 01:05:08;;;;;;;9.25;7.78;;;15.80;99.90;;;;;;5036169;28;20421;-87
2021/09/12 01:07:37;;;;;;;8.07;7.28;;;15.90;99.90;;;;;;5019049;28;20104;-87
2021/09/12 01:10:04;;;;;;;8.75;6.65;;;15.90;99.90;;;;;;5019011;28;20107;-87
2021/09/12 01:12:33;;;;;;;9.35;7.40;;;15.90;99.90;;;;;;5036395;28;20053;-87
2021/09/12 01:15:00;;;;;;;10.98;7.32;;;15.90;99.90;;;;;;5036021;28;20468;-87
2021/09/12 01:17:31;;;;;;;7.63;6.93;;;15.90;99.90;;;;;;5018984;28;20045;-87
2021/09/12 01:19:58;;;;;;;10.30;8.02;;;15.90;99.90;;;;;;5036289;28;20077;-87
2021/09/12 01:22:25;;;;;;;7.97;7.10;;;15.90;99.90;;;;;;5019200;28;20487;-87
2021/09/12 01:24:52;;;;;;;9.60;7.78;;;15.80;99.90;;;;;;5035881;28;20500;-86
2021/09/12 01:27:19;;;;;;;8.15;7.25;;;15.90;99.90;;;;;;5034880;28;20049;-87
2021/09/12 01:29:46;;;;;;;7.72;7.03;;;15.90;99.90;;;;;;5018778;28;20395;-86
2021/09/12 01:32:13;;;;;;;8.57;6.95;;;15.90;99.90;;;;;;5018589;28;20092;-86
2021/09/12 01:34:39;;;;;;;7.95;6.97;;;15.90;99.90;;;;;;5018763;28;20083;-87
2021/09/12 01:37:06;;;;;;;7.93;6.70;;;15.90;99.90;;;;;;5035765;28;20084;-86
2021/09/12 01:39:33;;;;;;;9.65;7.28;;;15.80;99.90;;;;;;5035656;28;20198;-87
2021/09/12 01:42:00;;;;;;;7.60;6.90;;;15.90;99.90;;;;;;5018441;28;20084;-87
2021/09/12 01:44:27;;;;;;;8.02;7.15;;;15.80;99.90;;;;;;5018636;28;20060;-86
2021/09/12 01:46:56;;;;;;;7.97;7.30;;;15.80;99.90;;;;;;5018187;28;20049;-87
2021/09/12 01:49:23;;;;;;;11.07;7.05;;;15.80;99.90;;;;;;5018425;28;20387;-87
2021/09/12 01:51:52;;;;;;;7.65;6.95;;;15.70;99.90;;;;;;5018399;28;20045;-87
2021/09/12 01:54:19;;;;;;;11.68;7.43;;;15.70;99.90;;;;;;5035505;28;20136;-87
2021/09/12 01:56:46;;;;;;;8.30;7.50;;;15.70;99.90;;;;;;5021515;28;20081;-87
2021/09/12 01:59:13;;;;;;;7.82;7.13;;;15.70;99.90;;;;;;5038275;28;20117;-86
2021/09/12 02:01:42;;;;;;;8.95;7.32;;;15.70;99.90;;;;;;5024517;28;20076;-87
2021/09/12 02:04:10;;;;;;;7.93;7.18;;;15.70;99.90;;;;;;5018339;28;20064;-87
2021/09/12 02:06:36;;;;;;;7.75;7.05;;;15.70;99.90;;;;;;5017676;28;20486;-87
2021/09/12 02:09:04;;;;;;;9.48;7.80;;;15.70;99.90;;;;;;5017695;28;20516;-87
2021/09/12 02:11:31;;;;;;;12.73;8.35;;;15.70;99.90;;;;;;5035137;28;20124;-87
2021/09/12 02:13:58;;;;;;;11.00;8.00;;;15.60;99.90;;;;;;5017689;28;20129;-87
2021/09/12 02:16:24;;;;;;;8.38;7.57;;;15.60;99.90;;;;;;5034905;28;20443;-87
2021/09/12 02:18:51;;;;;;;8.50;7.80;;;15.70;99.90;;;;;;5017212;28;20052;-87
2021/09/12 02:21:18;;;;;;;8.40;7.55;;;15.80;99.90;;;;;;5017609;28;20603;-87
2021/09/12 02:23:45;;;;;;;12.15;8.52;;;15.80;99.90;;;;;;5017502;28;20052;-86
2021/09/12 02:26:12;;;;;;;9.35;8.30;;;15.80;99.90;;;;;;5034720;28;20790;-87
2021/09/12 02:28:39;;;;;;;13.95;8.52;;;15.80;99.90;;;;;;5017345;28;20049;-87
2021/09/12 02:31:06;;;;;;;9.45;7.82;;;15.80;99.90;;;;;;5034319;28;20494;-87
2021/09/12 02:33:33;;;;;;;10.88;7.75;;;15.80;99.90;;;;;;5034449;28;20478;-87
2021/09/12 02:36:01;;;;;;;8.30;7.50;;;15.90;99.90;;;;;;5017065;28;20438;-87
2021/09/12 02:38:30;;;;;;;8.95;7.20;;;16.00;99.90;;;;;;5016555;28;20056;-86
2021/09/12 02:40:59;;;;;;;8.38;7.63;;;16.00;99.90;;;;;;5017003;28;20084;-87
2021/09/12 02:43:27;;;;;;;7.63;6.93;;;15.90;99.90;;;;;;5016772;28;20504;-87
2021/09/12 02:45:53;;;;;;;7.88;7.28;;;15.80;99.90;;;;;;5016748;28;20053;-86
2021/09/12 02:48:20;;;;;;;8.80;6.97;;;15.80;99.90;;;;;;5016820;28;20073;-86
2021/09/12 02:50:47;;;;;;;7.95;6.93;;;15.80;99.90;;;;;;5016623;28;20069;-87
2021/09/12 02:53:14;;;;;;;9.45;7.53;;;15.90;99.90;;;;;;5016965;28;20071;-87
2021/09/12 02:55:41;;;;;;;9.05;7.88;;;15.80;99.90;;;;;;5016861;28;20084;-86
2021/09/12 02:58:08;;;;;;;9.95;7.82;;;15.80;99.90;;;;;;5016518;28;20049;-87
2021/09/12 03:00:35;;;;;;;8.57;7.65;;;15.80;99.90;;;;;;5016554;28;20049;-87
2021/09/12 03:03:01;;;;;;;10.07;7.95;;;15.70;99.90;;;;;;5016357;28;20475;-87
2021/09/12 03:05:28;;;;;;;13.85;7.95;;;15.60;99.90;;;;;;5033973;28;20061;-87
2021/09/12 03:07:55;;;;;;;8.02;7.22;;;15.50;99.90;;;;;;5016548;28;20053;-87
2021/09/12 03:10:22;;;;;;;7.10;6.50;;;15.30;99.90;;;;;;5034128;28;20049;-87
2021/09/12 03:12:49;;;;;;;8.68;6.85;;;15.20;99.90;;;;;;5016627;28;20042;-87
2021/09/12 03:15:17;;;;;;;10.27;7.95;;;15.10;99.90;;;;;;5017088;28;20057;-87
2021/09/12 03:17:44;;;;;;;9.63;7.95;;;15.00;99.90;;;;;;5030208;28;20072;-87
2021/09/12 03:20:11;;;;;;;11.63;8.13;;;15.00;99.90;;;;;;5020669;28;20049;-87
2021/09/12 03:22:38;;;;;;;8.88;8.00;;;15.00;99.90;;;;;;5033658;28;20132;-87
2021/09/12 03:25:06;;;;;;;10.38;8.60;;;15.00;99.90;;;;;;5016367;28;20099;-87
2021/09/12 03:27:33;;;;;;;9.75;8.77;;;14.90;99.90;;;;;;5016474;28;20091;-87
2021/09/12 03:30:00;;;;;;;10.55;8.90;;;14.80;99.90;;;;;;5016250;28;20051;-86
2021/09/12 03:32:27;;;;;;;10.82;8.43;;;14.80;99.90;;;;;;5016164;28;20053;-86
2021/09/12 03:34:53;;;;;;;10.30;8.15;;;14.70;99.90;;;;;;5033343;28;20431;-87
2021/09/12 03:37:20;;;;;;;11.85;8.48;;;14.70;99.90;;;;;;5016232;28;20479;-87
2021/09/12 03:39:47;;;;;;;9.43;8.40;;;14.70;99.90;;;;;;5033554;28;20099;-87
2021/09/12 03:42:14;;;;;;;14.88;8.13;;;14.70;99.90;;;;;;5016059;28;20045;-87
2021/09/12 03:44:41;;;;;;;9.77;8.27;;;14.60;99.90;;;;;;5016035;28;20140;-86
2021/09/12 03:47:08;;;;;;;11.55;8.60;;;14.60;99.90;;;;;;5015880;28;20052;-87
2021/09/12 03:49:34;;;;;;;9.52;8.45;;;14.60;99.90;;;;;;5033802;28;20073;-86
2021/09/12 03:52:02;;;;;;;17.00;9.13;;;14.60;99.90;;;;;;5015395;28;20047;-86
2021/09/12 03:54:28;;;;;;;9.40;8.52;;;14.60;99.90;;;;;;5016351;28;20405;-86
2021/09/12 03:56:55;;;;;;;12.85;10.05;;;14.60;99.90;;;;;;5015858;28;20049;-86
2021/09/12 03:59:22;;;;;;;11.48;9.95;;;14.70;99.90;;;;;;5015745;28;20053;-87
2021/09/12 04:01:49;;;;;;;16.33;11.05;;;14.70;99.90;;;;;;5016067;28;20049;-85
2021/09/12 04:04:16;;;;;;;11.85;9.60;;;14.70;99.90;;;;;;5016188;28;20049;-87
2021/09/12 04:06:42;;;;;;;13.80;10.40;;;14.70;99.90;;;;;;5032944;28;20101;-87
2021/09/12 04:09:09;;;;;;;12.30;9.55;;;14.70;99.90;;;;;;5015988;28;20049;-87
2021/09/12 04:11:36;;;;;;;10.20;9.10;;;14.70;99.90;;;;;;5015955;28;20050;-86
2021/09/12 04:14:03;;;;;;;9.55;8.50;;;14.70;99.90;;;;;;5015904;28;20053;-87
2021/09/12 04:16:29;;;;;;;9.50;8.48;;;14.70;99.90;;;;;;5033118;28;20061;-87
2021/09/12 04:18:56;;;;;;;9.20;8.30;;;14.70;99.90;;;;;;5015647;28;20559;-87
2021/09/12 04:21:23;;;;;;;10.20;9.18;;;14.60;99.90;;;;;;5015931;28;20049;-87
2021/09/12 04:23:50;;;;;;;10.32;9.05;;;14.60;99.90;;;;;;5015816;28;20049;-87
2021/09/12 04:26:16;;;;;;;12.77;8.23;;;14.60;99.90;;;;;;5032799;28;20053;-87
2021/09/12 04:28:44;;;;;;;10.50;9.15;;;14.40;99.90;;;;;;5015649;28;20053;-87
2021/09/12 04:31:11;;;;;;;10.98;8.40;;;14.30;99.90;;;;;;5015939;28;20396;-87
2021/09/12 04:33:39;;;;;;;10.05;9.05;;;14.30;99.90;;;;;;5016029;28;20092;-86
2021/09/12 04:36:05;;;;;;;13.85;8.30;;;14.20;99.90;;;;;;5029309;28;20093;-87
2021/09/12 04:38:32;;;;;;;9.57;7.68;;;14.20;99.90;;;;;;5044316;28;20053;-86
2021/09/12 04:41:00;;;;;;;10.32;8.15;;;14.10;99.90;;;;;;5015016;28;20561;-86
2021/09/12 04:43:27;;;;;;;9.63;8.45;;;14.10;99.90;;;;;;5015717;28;20045;-87
2021/09/12 04:45:55;;;;;;;10.45;8.27;;;14.10;99.90;;;;;;5015406;28;20049;-87
2021/09/12 04:48:21;;;;;;;14.05;8.13;;;14.00;99.90;;;;;;5015882;28;20046;-87
2021/09/12 04:50:48;;;;;;;11.05;8.52;;;14.00;99.90;;;;;;5015653;28;20136;-87
2021/09/12 04:53:15;;;;;;;14.02;9.15;;;13.90;99.90;;;;;;5015435;28;20053;-87
2021/09/12 04:55:42;;;;;;;12.25;8.73;;;13.90;99.90;;;;;;5015599;28;20054;-87
2021/09/12 04:58:08;;;;;;;11.50;8.93;;;13.90;99.90;;;;;;5015539;28;20055;-87
2021/09/12 05:00:35;;;;;;;10.30;8.05;;;13.90;99.90;;;;;;5015418;28;20064;-87
2021/09/12 05:03:02;;;;;;;9.95;8.25;;;13.90;99.90;;;;;;5018718;28;20064;-87
2021/09/12 05:05:29;;;;;;;8.77;7.97;;;14.00;99.90;;;;;;5019103;28;20076;-87
2021/09/12 05:07:56;;;;;;;9.18;8.27;;;14.00;99.90;;;;;;5018865;28;20096;-87
2021/09/12 05:10:23;;;;;;;11.02;9.65;;;13.90;99.90;;;;;;5019123;28;20053;-87
2021/09/12 05:12:50;;;;;;;22.38;11.00;;;14.00;99.90;;;;;;5019023;28;20072;-88
2021/09/12 05:15:17;;;;;;;19.17;11.02;;;14.00;99.90;;;;;;5019068;28;20103;-87
2021/09/12 05:17:44;;;;;;;13.30;9.93;;;14.10;99.90;;;;;;5019046;28;20489;-88
2021/09/12 05:20:11;;;;;;;15.18;11.82;;;14.20;99.90;;;;;;5018945;28;20553;-87
2021/09/12 05:22:38;;;;;;;18.10;12.43;;;14.20;99.90;;;;;;5018696;28;20041;-88
2021/09/12 05:25:05;;;;;;;13.02;11.43;;;14.20;99.90;;;;;;5018838;28;20140;-88
2021/09/12 05:27:32;;;;;;;12.10;10.40;;;14.30;99.90;;;;;;5018826;28;20056;-88
2021/09/12 05:29:59;;;;;;;15.52;10.90;;;14.40;99.90;;;;;;5018538;28;20049;-88
2021/09/12 05:32:26;;;;;;;15.35;12.30;;;14.40;99.90;;;;;;5018745;28;20052;-88
2021/09/12 05:34:52;;;;;;;18.10;13.40;;;14.50;99.90;;;;;;5018499;28;20053;-87
2021/09/12 05:37:19;;;;;;;20.40;12.38;;;14.60;99.90;;;;;;5018796;28;20056;-87
2021/09/12 05:39:46;;;;;;;17.27;11.70;;;14.70;99.90;;;;;;5018539;28;20059;-88
2021/09/12 05:42:12;;;;;;;11.27;9.63;;;14.60;99.90;;;;;;5018626;28;20053;-88
2021/09/12 05:44:39;;;;;;;14.18;10.20;;;14.60;99.90;;;;;;5018532;28;20060;-87
2021/09/12 05:47:06;;;;;;;11.07;8.05;;;14.60;99.90;;;;;;5018359;28;20049;-87
2021/09/12 05:49:32;;;;;;;10.07;8.15;;;14.60;99.90;;;;;;5018340;28;20053;-88
2021/09/12 05:51:59;;;;;;;15.90;8.57;;;14.50;99.90;;;;;;5035854;28;20429;-88
2021/09/12 05:54:26;;;;;;;11.90;8.27;;;14.60;99.90;;;;;;5024550;28;20055;-88
2021/09/12 05:56:52;;;;;;;13.80;11.05;;;14.50;99.90;;;;;;5034647;28;20578;-88
2021/09/12 05:59:19;;;;;;;12.13;10.30;;;14.50;99.90;;;;;;5019793;28;20140;-87
2021/09/12 06:01:46;;;;;;;12.60;8.35;;;14.70;99.90;;;;;;5017881;28;20056;-88
2021/09/12 06:04:13;;;;;;;9.20;7.40;;;14.80;99.90;;;;;;5018057;28;20505;-87
2021/09/12 06:06:40;;;;;;;8.98;8.00;;;15.00;99.90;;;;;;5017529;28;20053;-86
2021/09/12 06:09:06;;;;;;;7.45;6.65;;;15.10;99.90;;;;;;5017848;28;20073;-88
2021/09/12 06:11:33;;;;;;;8.73;6.55;;;15.20;99.90;;;;;;5018197;28;20128;-88
2021/09/12 06:14:00;;;;;;;8.10;6.22;;;15.40;99.90;;;;;;5034615;28;20052;-87
2021/09/12 06:16:26;;;;;;;5.70;5.30;;;15.60;99.90;;;;;;5017939;28;20132;-88
2021/09/12 06:18:53;;;;;;;5.90;5.43;;;15.80;99.90;;;;;;5018134;28;20056;-88
2021/09/12 06:21:21;;;;;;;5.65;5.15;;;15.90;99.90;;;;;;5018384;28;20478;-87
2021/09/12 06:23:48;;;;;;;5.50;5.00;;;16.00;99.90;;;;;;5017659;28;20073;-87
2021/09/12 06:26:15;;;;;;;4.82;4.53;;;16.20;99.90;;;;;;5017137;28;20366;-87
2021/09/12 06:28:41;;;;;;;5.30;4.90;;;16.40;99.90;;;;;;5017301;28;20046;-87
2021/09/12 06:31:08;;;;;;;17.52;5.57;;;16.60;99.90;;;;;;5017545;28;20490;-88
2021/09/12 06:33:35;;;;;;;23.25;6.40;;;16.70;99.90;;;;;;5017658;28;20476;-88
2021/09/12 06:36:02;;;;;;;13.70;5.63;;;16.90;99.90;;;;;;5017560;28;20051;-88
2021/09/12 06:38:29;;;;;;;5.53;5.03;;;16.90;99.90;;;;;;5017384;28;20482;-89
2021/09/12 06:40:55;;;;;;;7.15;5.18;;;16.90;99.90;;;;;;5016907;28;20053;-87
2021/09/12 06:43:23;;;;;;;8.10;4.30;;;17.20;99.90;;;;;;5017340;28;20385;-88
2021/09/12 06:45:50;;;;;;;6.63;4.72;;;17.50;99.90;;;;;;5017131;28;20049;-88
2021/09/12 06:48:17;;;;;;;6.32;4.45;;;17.80;99.90;;;;;;5017062;28;20045;-88
2021/09/12 06:50:44;;;;;;;13.25;5.65;;;18.00;99.90;;;;;;5017058;28;20059;-88
2021/09/12 06:53:12;;;;;;;17.77;5.32;;;18.10;99.90;;;;;;5017192;28;20046;-88
2021/09/12 06:55:39;;;;;;;7.78;4.50;;;18.20;99.90;;;;;;5017127;28;20057;-88
2021/09/12 06:58:06;;;;;;;9.57;4.68;;;18.40;99.90;;;;;;5017022;28;20045;-88
2021/09/12 07:00:33;;;;;;;17.38;4.82;;;18.50;99.90;;;;;;5016811;28;20041;-88
2021/09/12 07:03:00;;;;;;;10.40;4.80;;;18.70;99.90;;;;;;5017006;28;20053;-89
2021/09/12 07:05:27;;;;;;;8.88;4.93;;;18.80;99.90;;;;;;5016797;28;20049;-88
2021/09/12 07:07:54;;;;;;;9.30;4.82;;;18.80;99.90;;;;;;5016532;28;20063;-88
2021/09/12 07:10:21;;;;;;;8.48;4.78;;;19.00;99.90;;;;;;5017046;28;20052;-89
2021/09/12 07:12:48;;;;;;;9.45;4.88;;;19.20;99.90;;;;;;5017643;28;20561;-88
2021/09/12 07:15:15;;;;;;;14.00;4.40;;;19.30;99.90;;;;;;5035469;28;20037;-88
2021/09/12 07:17:42;;;;;;;9.18;4.57;;;19.50;99.90;;;;;;5018706;28;20532;-89
2021/09/12 07:20:09;;;;;;;14.45;4.97;;;19.70;99.90;;;;;;5016535;28;20243;-88
2021/09/12 07:22:36;;;;;;;9.85;4.18;;;19.90;99.90;;;;;;5034011;28;20153;-88
2021/09/12 07:25:04;;;;;;;11.93;4.50;;;20.30;99.90;;;;;;5016207;28;20067;-85
2021/09/12 07:27:31;;;;;;;8.57;4.00;;;20.70;99.90;;;;;;5016467;28;20052;-87
2021/09/12 07:30:08;;;;;;;7.10;3.72;;;21.20;99.90;;;;;;5018381;28;20041;-86
2021/09/12 07:32:35;;;;;;;3.72;3.38;;;21.30;99.90;;;;;;5017266;28;20081;-87
2021/09/12 07:35:02;;;;;;;4.22;3.30;;;21.60;99.90;;;;;;5032888;28;20055;-85
2021/09/12 07:37:29;;;;;;;6.25;3.40;;;22.10;99.90;;;;;;5016088;28;20057;-85
2021/09/12 07:39:55;;;;;;;7.22;2.97;;;22.50;99.90;;;;;;5016222;28;20055;-85
2021/09/12 07:42:22;;;;;;;8.98;3.75;;;22.70;99.90;;;;;;5033608;28;20053;-86
2021/09/12 07:44:49;;;;;;;6.88;3.65;;;22.70;99.90;;;;;;5015651;28;20508;-86
2021/09/12 07:47:16;;;;;;;7.35;4.25;;;22.50;99.90;;;;;;5015543;28;20103;-86
2021/09/12 07:49:43;;;;;;;10.50;3.72;;;22.10;99.90;;;;;;5016263;28;20053;-86
2021/09/12 07:52:10;;;;;;;8.20;3.75;;;22.50;99.90;;;;;;5016165;28;20056;-87
2021/09/12 07:54:38;;;;;;;5.15;3.13;;;23.20;99.90;;;;;;5015990;28;20473;-87
2021/09/12 07:57:09;;;;;;;3.78;3.25;;;23.70;99.90;;;;;;5016646;28;20068;-86
2021/09/12 07:59:36;;;;;;;3.58;3.00;;;24.70;99.90;;;;;;5016169;28;20117;-86
2021/09/12 08:02:03;;;;;;;3.40;2.70;;;26.20;99.90;;;;;;5015916;28;20565;-86
2021/09/12 08:04:30;;;;;;;3.45;1.95;;;29.30;99.90;;;;;;5015974;28;20045;-86
2021/09/12 08:06:56;;;;;;;1.90;1.60;;;31.20;95.60;;;;;;5015488;28;20057;-86
2021/09/12 08:09:23;;;;;;;2.83;1.58;;;32.20;86.90;;;;;;5033198;28;20060;-86
2021/09/12 08:11:50;;;;;;;0.85;0.85;;;32.70;79.70;;;;;;5015740;28;20055;-85
2021/09/12 08:14:17;;;;;;;1.27;1.00;;;33.30;74.20;;;;;;5033196;28;20498;-86
2021/09/12 08:16:43;;;;;;;0.85;0.85;;;34.10;70.80;;;;;;5032933;28;20435;-86
2021/09/12 08:19:10;;;;;;;0.90;0.90;;;34.00;66.40;;;;;;5015619;28;20054;-85
2021/09/12 08:21:41;;;;;;;1.65;0.80;;;32.50;66.70;;;;;;5016225;28;20091;-86
2021/09/12 08:24:08;;;;;;;0.90;0.90;;;33.90;66.60;;;;;;5015811;28;20418;-87
2021/09/12 08:26:34;;;;;;;2.75;0.90;;;35.30;60.50;;;;;;5015698;28;20048;-87
2021/09/12 08:29:01;;;;;;;1.23;0.90;;;35.40;59.40;;;;;;5015472;28;20049;-87
2021/09/12 08:31:28;;;;;;;0.82;0.82;;;35.00;59.20;;;;;;5016226;28;20083;-86
2021/09/12 08:33:55;;;;;;;3.15;1.05;;;34.80;60.80;;;;;;5027797;28;20057;-87
2021/09/12 08:36:22;;;;;;;1.23;0.88;;;34.90;57.60;;;;;;5025466;28;20128;-87
2021/09/12 08:38:49;;;;;;;0.90;0.90;;;35.10;58.50;;;;;;5037315;28;20053;-86
2021/09/12 08:41:19;;;;;;;0.90;0.90;;;34.10;58.60;;;;;;5019610;28;20063;-86
2021/09/12 08:43:47;;;;;;;4.43;1.20;;;36.30;58.10;;;;;;5037176;28;20050;-87
2021/09/12 08:46:15;;;;;;;2.15;1.00;;;38.60;54.70;;;;;;5019711;28;20107;-86
2021/09/12 08:48:44;;;;;;;1.00;0.90;;;36.90;51.80;;;;;;5036940;28;20049;-87
2021/09/12 08:51:11;;;;;;;1.10;0.93;;;34.50;55.70;;;;;;5019247;28;20087;-86
2021/09/12 08:53:38;;;;;;;2.75;1.40;;;35.20;56.90;;;;;;5019630;28;20140;-87
2021/09/12 08:56:05;;;;;;;1.55;1.45;;;32.80;59.40;;;;;;5019377;28;20136;-87
2021/09/12 08:58:32;;;;;;;2.35;1.73;;;31.60;63.60;;;;;;5019407;28;20049;-86
2021/09/12 09:01:00;;;;;;;2.17;1.70;;;29.70;68.50;;;;;;5036284;28;20205;-85
2021/09/12 09:03:39;;;;;;;2.55;1.63;;;28.90;72.80;;;;;;5019339;28;20049;-86
2021/09/12 09:06:17;;;;;;;2.80;1.45;;;30.50;73.50;;;;;;5019342;28;20111;-85
2021/09/12 09:08:59;;;;;;;1.67;1.55;;;30.30;70.20;;;;;;5019005;28;20053;-86
2021/09/12 09:11:36;;;;;;;2.65;1.50;;;29.00;72.10;;;;;;5036528;28;20100;-85
2021/09/12 09:14:21;;;;;;;1.95;1.60;;;28.10;74.90;;;;;;5019669;28;20052;-86
2021/09/12 09:16:50;;;;;;;1.70;1.60;;;27.30;78.40;;;;;;5019121;28;20084;-86
2021/09/12 09:19:18;;;;;;;2.83;1.50;;;26.20;81.60;;;;;;5036101;28;20133;-85
2021/09/12 09:21:48;;;;;;;2.25;1.33;;;25.80;86.90;;;;;;5018825;28;20131;-85
2021/09/12 09:24:17;;;;;;;2.75;1.65;;;25.80;90.60;;;;;;5018266;28;20042;-85
2021/09/12 09:26:46;;;;;;;1.52;1.50;;;25.60;91.00;;;;;;5018255;28;20053;-84
2021/09/12 09:29:14;;;;;;;1.98;1.70;;;25.50;92.00;;;;;;5018364;28;20053;-87
2021/09/12 09:31:41;;;;;;;1.70;1.60;;;24.90;91.80;;;;;;5018677;28;20138;-87
2021/09/12 09:34:16;;;;;;;1.80;1.70;;;26.60;90.70;;;;;;5018809;28;20413;-86
2021/09/12 09:36:43;;;;;;;0.93;0.77;;;30.20;83.30;;;;;;5018978;28;20516;-87
2021/09/12 09:39:10;;;;;;;1.77;1.30;;;33.60;68.30;;;;;;5019081;28;20087;-86
2021/09/12 09:41:38;;;;;;;2.42;0.70;;;35.30;59.80;;;;;;5018943;28;20049;-86
2021/09/12 09:44:12;;;;;;;3.63;1.42;;;36.20;56.10;;;;;;5019222;28;20124;-86
2021/09/12 09:46:41;;;;;;;3.63;1.70;;;37.30;52.90;;;;;;5035989;28;20417;-85
2021/09/12 09:49:25;;;;;;;3.97;0.95;;;39.00;52.60;;;;;;5017257;28;20052;-87
2021/09/12 09:51:59;;;;;;;1.30;1.20;;;39.20;49.20;;;;;;5030669;28;20047;-86
2021/09/12 09:54:28;;;;;;;2.65;0.93;;;38.50;48.20;;;;;;5059652;28;20049;-86
2021/09/12 09:56:56;;;;;;;1.10;0.60;;;37.40;50.90;;;;;;5019046;28;20061;-87
2021/09/12 09:59:26;;;;;;;1.35;0.65;;;37.30;49.60;;;;;;5018284;28;20053;-87
2021/09/12 10:01:55;;;;;;;0.98;0.80;;;37.20;49.30;;;;;;5017743;28;20079;-88
2021/09/12 10:04:28;;;;;;;1.58;0.50;;;37.00;49.40;;;;;;5017888;28;20081;-86
2021/09/12 10:06:56;;;;;;;0.50;0.50;;;37.30;50.10;;;;;;5017614;28;20065;-86
2021/09/12 10:09:24;;;;;;;1.67;0.30;;;37.80;51.60;;;;;;5018009;28;20128;-86
2021/09/12 10:12:01;;;;;;;0.82;0.40;;;38.10;50.30;;;;;;5017980;28;20240;-89
2021/09/12 10:14:44;;;;;;;0.57;0.57;;;38.10;47.40;;;;;;5035114;28;20045;-90
2021/09/12 10:17:15;;;;;;;2.33;0.60;;;36.40;49.40;;;;;;5017693;28;20065;-86
2021/09/12 10:19:43;;;;;;;0.40;0.40;;;36.40;52.20;;;;;;5017662;28;20050;-86
2021/09/12 10:22:13;;;;;;;0.82;0.50;;;37.50;50.90;;;;;;5034661;28;20060;-86
2021/09/12 10:25:06;;;;;;;0.40;0.40;;;38.60;48.50;;;;;;5017508;28;20414;-86
2021/09/12 10:27:41;;;;;;;1.88;0.50;;;38.00;48.00;;;;;;5017509;28;20055;-85
2021/09/12 10:30:24;;;;;;;0.47;0.47;;;37.30;47.90;;;;;;5017522;28;20080;-86
2021/09/12 10:32:53;;;;;;;1.92;0.50;;;34.80;49.80;;;;;;5034458;28;20405;-85
2021/09/12 10:35:24;;;;;;;0.90;0.40;;;33.80;52.50;;;;;;5034793;28;20103;-87
2021/09/12 10:38:12;;;;;;;1.75;0.60;;;34.00;54.00;;;;;;5017210;28;20049;-86
2021/09/12 10:40:48;;;;;;;0.30;0.30;;;35.00;51.80;;;;;;5017186;28;20053;-85
2021/09/12 10:43:27;;;;;;;1.80;0.70;;;35.20;51.30;;;;;;5017120;28;20053;-86
2021/09/12 10:46:06;;;;;;;0.50;0.45;;;34.90;50.80;;;;;;5016959;28;20050;-87
2021/09/12 10:48:40;;;;;;;0.60;0.50;;;36.00;50.40;;;;;;5017242;28;20057;-87
2021/09/12 10:51:26;;;;;;;0.32;0.32;;;38.40;48.50;;;;;;5016956;28;20081;-86
2021/09/12 10:53:59;;;;;;;1.42;0.40;;;38.30;45.20;;;;;;5016832;28;20049;-86
2021/09/12 10:56:28;;;;;;;0.50;0.50;;;37.50;47.00;;;;;;5017220;28;20051;-86
2021/09/12 10:59:03;;;;;;;0.70;0.70;;;38.10;47.60;;;;;;5016895;28;20060;-86
2021/09/12 11:01:37;;;;;;;0.93;0.70;;;36.10;51.30;;;;;;5016548;28;20080;-85
2021/09/12 11:04:05;;;;;;;0.93;0.93;;;35.00;52.90;;;;;;5016787;28;20453;-86
2021/09/12 11:06:34;;;;;;;0.70;0.70;;;34.70;53.20;;;;;;5033730;28;20516;-86
2021/09/12 11:09:03;;;;;;;0.77;0.70;;;33.90;54.40;;;;;;5016662;28;20455;-86
2021/09/12 11:11:30;;;;;;;0.68;0.68;;;32.90;55.40;;;;;;5016921;28;20080;-84
2021/09/12 11:13:58;;;;;;;0.88;0.88;;;31.30;57.80;;;;;;5032412;28;20059;-85
2021/09/12 11:16:26;;;;;;;1.42;1.08;;;30.10;60.50;;;;;;5019929;28;20516;-86
2021/09/12 11:19:01;;;;;;;1.00;1.00;;;29.00;63.00;;;;;;5016897;28;20556;-85
2021/09/12 11:21:40;;;;;;;1.63;0.82;;;28.10;66.70;;;;;;5016227;28;20140;-85
2021/09/12 11:24:12;;;;;;;1.77;1.10;;;27.40;69.40;;;;;;5016256;28;20057;-85
2021/09/12 11:26:40;;;;;;;1.97;0.77;;;27.10;70.10;;;;;;5016344;28;20407;-85
2021/09/12 11:29:16;;;;;;;0.90;0.90;;;26.80;71.20;;;;;;5033623;28;20299;-85
2021/09/12 11:31:45;;;;;;;2.75;1.40;;;26.70;70.60;;;;;;5016441;28;20405;-86
2021/09/12 11:34:15;;;;;;;1.50;1.50;;;26.30;75.20;;;;;;5033619;28;20054;-85
2021/09/12 11:36:52;;;;;;;1.60;1.40;;;25.90;78.40;;;;;;5015842;28;20049;-84
2021/09/12 11:39:23;;;;;;;1.40;1.30;;;25.80;80.40;;;;;;5016377;28;20113;-86
2021/09/12 11:41:50;;;;;;;1.40;1.30;;;25.70;82.00;;;;;;5015795;28;20049;-86
2021/09/12 11:44:21;;;;;;;2.03;1.48;;;25.20;85.90;;;;;;5016490;28;20576;-85
2021/09/12 11:46:50;;;;;;;1.70;1.40;;;25.00;91.10;;;;;;5015665;28;20053;-85
2021/09/12 11:49:18;;;;;;;4.20;3.30;;;25.40;91.00;;;;;;5016193;28;20124;-84
2021/09/12 11:51:47;;;;;;;1.42;1.33;;;25.50;89.50;;;;;;5016036;28;20045;-85
2021/09/12 11:54:24;;;;;;;2.17;2.08;;;25.50;89.80;;;;;;5015717;28;20052;-85
2021/09/12 11:57:06;;;;;;;4.82;3.13;;;25.40;90.70;;;;;;5033238;28;20049;-85
2021/09/12 11:59:41;;;;;;;2.30;2.10;;;25.00;92.00;;;;;;5015951;28;20159;-84
2021/09/12 12:02:24;;;;;;;1.42;1.33;;;24.60;95.40;;;;;;5031648;28;20053;-84
2021/09/12 12:04:57;;;;;;;2.35;1.50;;;24.70;96.20;;;;;;5015629;28;20490;-85
2021/09/12 12:07:37;;;;;;;3.50;1.95;;;24.60;99.90;;;;;;5015691;28;20050;-85
2021/09/12 12:10:04;;;;;;;3.17;1.63;;;24.30;99.10;;;;;;5015525;28;20077;-84
2021/09/12 12:12:39;;;;;;;1.95;1.58;;;24.10;99.90;;;;;;5017812;28;20053;-84
2021/09/12 12:15:06;;;;;;;2.80;1.63;;;24.20;99.90;;;;;;5019442;28;20137;-85
2021/09/12 12:17:34;;;;;;;1.98;1.85;;;24.00;99.90;;;;;;5019798;28;20406;-84
2021/09/12 12:20:02;;;;;;;1.50;1.50;;;23.80;99.90;;;;;;5036949;28;20080;-85
2021/09/12 12:22:37;;;;;;;1.70;1.45;;;23.80;99.90;;;;;;5037055;28;20136;-86
2021/09/12 12:25:06;;;;;;;3.25;1.60;;;24.50;99.90;;;;;;5019381;28;20573;-85
2021/09/12 12:27:42;;;;;;;1.50;1.40;;;24.90;99.90;;;;;;5020351;28;20092;-85
2021/09/12 12:30:09;;;;;;;2.97;1.70;;;25.00;99.90;;;;;;5019646;28;20141;-86
2021/09/12 12:32:36;;;;;;;2.28;1.65;;;25.00;99.90;;;;;;5024692;28;20033;-84
2021/09/12 12:35:17;;;;;;;1.45;1.45;;;24.90;99.90;;;;;;5034029;28;20391;-84
2021/09/12 12:37:46;;;;;;;1.33;1.10;;;24.70;99.90;;;;;;5037150;28;20045;-85
2021/09/12 12:40:23;;;;;;;1.90;1.80;;;24.80;99.90;;;;;;5019477;28;20053;-85
2021/09/12 12:43:00;;;;;;;1.70;1.60;;;24.90;99.90;;;;;;5018969;28;20061;-84
2021/09/12 12:45:32;;;;;;;1.65;1.55;;;24.50;99.90;;;;;;5036456;28;20414;-84
2021/09/12 12:47:59;;;;;;;2.28;1.80;;;23.90;99.90;;;;;;5019274;28;20049;-85
2021/09/12 12:50:31;;;;;;;2.03;1.92;;;24.00;99.90;;;;;;5019332;28;20100;-84